createdAt,value
2023-05-02T00:00:03.878Z,2.38
2023-05-02T00:02:32.455Z,2.60
2023-05-02T00:05:00.114Z,3.08
2023-05-02T00:07:27.717Z,2.72
2023-05-02T00:09:55.283Z,2.90
2023-05-02T00:12:23.099Z,2.33
2023-05-02T00:14:50.646Z,2.60
2023-05-02T00:17:18.756Z,2.25
2023-05-02T00:19:46.403Z,2.13
2023-05-02T00:22:13.866Z,2.05
2023-05-02T00:24:41.424Z,2.38
2023-05-02T00:27:08.888Z,2.20
2023-05-02T00:29:36.626Z,2.75
2023-05-02T00:32:04.123Z,2.45
2023-05-02T00:34:31.811Z,2.67
2023-05-02T00:36:59.516Z,2.92
2023-05-02T00:39:26.995Z,2.78
2023-05-02T00:41:58.616Z,2.58
2023-05-02T00:44:26.213Z,2.88
2023-05-02T00:46:54.003Z,2.47
2023-05-02T00:49:21.542Z,2.40
2023-05-02T00:51:49.001Z,2.58
2023-05-02T00:54:16.580Z,2.70
2023-05-02T00:56:44.070Z,2.58
2023-05-02T00:59:12.242Z,2.67
2023-05-02T01:01:45.960Z,2.33
2023-05-02T01:04:13.607Z,2.15
2023-05-02T01:07:00.492Z,2.55
2023-05-02T01:09:43.299Z,2.40
2023-05-02T01:12:20.620Z,2.42
2023-05-02T01:14:51.559Z,2.97
2023-05-02T01:19:51.558Z,2.50
2023-05-02T01:22:19.920Z,2.65
2023-05-02T01:25:09.849Z,2.30
2023-05-02T01:27:44.106Z,2.45
2023-05-02T01:30:12.365Z,2.28
2023-05-02T01:32:40.972Z,2.60
2023-05-02T01:35:09.738Z,2.90
2023-05-02T01:37:38.109Z,2.88
2023-05-02T01:40:06.400Z,2.10
2023-05-02T01:42:35.362Z,2.50
2023-05-02T01:45:04.712Z,2.53
2023-05-02T01:47:34.181Z,2.92
2023-05-02T01:50:03.161Z,2.70
2023-05-02T01:52:30.887Z,2.47
2023-05-02T01:55:00.028Z,2.42
2023-05-02T01:57:28.059Z,2.40
2023-05-02T01:59:57.766Z,3.15
2023-05-02T02:02:27.603Z,2.38
2023-05-02T02:04:58.418Z,2.78
2023-05-02T02:07:25.920Z,2.75
2023-05-02T02:09:53.534Z,3.00
2023-05-02T02:12:27.061Z,2.55
2023-05-02T02:15:01.300Z,2.60
2023-05-02T02:17:33.408Z,2.35
2023-05-02T02:20:03.878Z,2.88
2023-05-02T02:22:31.934Z,2.85
2023-05-02T02:24:59.655Z,2.92
2023-05-02T02:27:28.167Z,2.65
2023-05-02T02:29:55.640Z,2.80
2023-05-02T02:32:23.261Z,2.47
2023-05-02T02:34:51.345Z,2.42
2023-05-02T02:37:24.146Z,2.63
2023-05-02T02:39:59.089Z,2.78
2023-05-02T02:42:46.095Z,2.50
2023-05-02T02:45:19.584Z,2.85
2023-05-02T02:47:51.989Z,3.58
2023-05-02T02:50:43.924Z,2.88
2023-05-02T02:53:17.708Z,3.10
2023-05-02T02:55:56.318Z,2.95
2023-05-02T02:58:24.300Z,3.50
2023-05-02T03:00:53.070Z,2.80
2023-05-02T03:03:24.955Z,3.38
2023-05-02T03:05:52.799Z,2.95
2023-05-02T03:08:20.506Z,2.70
2023-05-02T03:10:48.051Z,3.03
2023-05-02T03:13:15.646Z,2.97
2023-05-02T03:15:53.182Z,3.35
2023-05-02T03:18:27.361Z,2.95
2023-05-02T03:20:55.507Z,3.03
2023-05-02T03:23:23.024Z,3.05
2023-05-02T03:25:52.932Z,3.28
2023-05-02T03:28:24.134Z,2.67
2023-05-02T03:30:53.416Z,3.28
2023-05-02T03:33:22.087Z,2.83
2023-05-02T03:35:49.681Z,2.50
2023-05-02T03:38:17.411Z,2.45
2023-05-02T03:40:47.488Z,2.35
2023-05-02T03:43:15.106Z,3.42
2023-05-02T03:45:43.241Z,2.75
2023-05-02T03:48:11.420Z,3.08
2023-05-02T03:50:39.140Z,2.75
2023-05-02T03:53:08.226Z,2.67
2023-05-02T03:55:44.471Z,2.78
2023-05-02T03:58:18.580Z,2.88
2023-05-02T04:00:47.118Z,2.78
2023-05-02T04:03:15.625Z,2.63
2023-05-02T04:05:46.361Z,2.83
2023-05-02T04:08:17.175Z,2.88
2023-05-02T04:10:45.350Z,2.75
2023-05-02T04:13:13.438Z,2.58
2023-05-02T04:18:11.831Z,3.10
2023-05-02T04:20:39.562Z,2.50
2023-05-02T04:23:07.148Z,3.15
2023-05-02T04:25:35.070Z,3.10
2023-05-02T04:28:04.984Z,3.13
2023-05-02T04:30:32.805Z,3.40
2023-05-02T04:33:06.472Z,2.90
2023-05-02T04:35:37.000Z,3.53
2023-05-02T04:38:05.981Z,2.78
2023-05-02T04:40:33.853Z,3.47
2023-05-02T04:43:05.736Z,3.63
2023-05-02T04:45:50.266Z,2.95
2023-05-02T04:48:26.388Z,3.35
2023-05-02T04:50:54.043Z,2.95
2023-05-02T04:53:22.658Z,3.05
2023-05-02T04:55:50.471Z,2.97
2023-05-02T04:58:17.959Z,3.35
2023-05-02T05:00:49.648Z,3.00
2023-05-02T05:03:17.547Z,2.95
2023-05-02T05:05:45.141Z,3.92
2023-05-02T05:08:15.642Z,3.28
2023-05-02T05:10:43.317Z,2.75
2023-05-02T05:13:12.529Z,3.83
2023-05-02T05:15:40.917Z,2.97
2023-05-02T05:18:09.575Z,2.92
2023-05-02T05:20:37.324Z,3.40
2023-05-02T05:23:05.583Z,3.28
2023-05-02T05:25:35.833Z,3.10
2023-05-02T05:28:04.264Z,3.38
2023-05-02T05:30:34.477Z,3.50
2023-05-02T05:33:04.440Z,3.58
2023-05-02T05:35:32.801Z,2.88
2023-05-02T05:38:01.810Z,3.17
2023-05-02T05:40:31.565Z,3.85
2023-05-02T05:43:00.000Z,3.83
2023-05-02T05:45:32.214Z,3.72
2023-05-02T05:47:59.765Z,3.75
2023-05-02T05:50:30.792Z,3.60
2023-05-02T05:52:58.426Z,3.60
2023-05-02T05:55:28.533Z,3.50
2023-05-02T05:57:56.091Z,3.83
2023-05-02T06:00:24.598Z,3.40
2023-05-02T06:02:54.083Z,2.97
2023-05-02T06:05:27.358Z,3.42
2023-05-02T06:07:55.273Z,3.20
2023-05-02T06:10:22.744Z,3.35
2023-05-02T06:12:50.741Z,3.22
2023-05-02T06:17:49.210Z,2.90
2023-05-02T06:20:18.550Z,2.55
2023-05-02T06:22:46.543Z,2.97
2023-05-02T06:25:14.027Z,2.70
2023-05-02T06:27:41.547Z,2.92
2023-05-02T06:30:09.301Z,2.90
2023-05-02T06:32:36.871Z,3.35
2023-05-02T06:35:04.570Z,2.92
2023-05-02T06:37:34.398Z,3.25
2023-05-02T06:40:02.321Z,2.90
2023-05-02T06:42:30.091Z,2.42
2023-05-02T06:44:57.560Z,3.10
2023-05-02T06:47:25.787Z,3.05
2023-05-02T06:49:53.746Z,3.38
2023-05-02T06:52:21.291Z,3.22
2023-05-02T06:54:48.807Z,2.95
2023-05-02T06:57:16.406Z,3.45
2023-05-02T06:59:43.860Z,2.85
2023-05-02T07:02:11.497Z,3.30
2023-05-02T07:04:39.149Z,3.22
2023-05-02T07:07:06.815Z,3.10
2023-05-02T07:09:34.270Z,3.28
2023-05-02T07:12:04.560Z,3.40
2023-05-02T07:14:33.659Z,3.05
2023-05-02T07:17:01.234Z,3.03
2023-05-02T07:19:28.771Z,2.95
2023-05-02T07:21:56.338Z,3.13
2023-05-02T07:24:23.897Z,3.20
2023-05-02T07:26:51.370Z,3.80
2023-05-02T07:29:18.877Z,3.58
2023-05-02T07:31:46.435Z,3.00
2023-05-02T07:34:14.029Z,3.97
2023-05-02T07:36:41.509Z,3.60
2023-05-02T07:39:09.051Z,3.88
2023-05-02T07:41:36.546Z,3.45
2023-05-02T07:44:04.080Z,3.97
2023-05-02T07:46:31.716Z,3.50
2023-05-02T07:48:59.300Z,3.63
2023-05-02T07:51:26.860Z,3.95
2023-05-02T07:53:55.785Z,3.72
2023-05-02T07:56:23.255Z,4.20
2023-05-02T07:58:53.786Z,3.92
2023-05-02T08:01:21.278Z,4.00
2023-05-02T08:03:49.721Z,3.45
2023-05-02T08:06:17.602Z,3.92
2023-05-02T08:08:45.068Z,4.07
2023-05-02T08:11:12.552Z,4.90
2023-05-02T08:13:40.020Z,4.50
2023-05-02T08:16:08.763Z,3.70
2023-05-02T08:18:36.463Z,3.92
2023-05-02T08:21:04.101Z,4.63
2023-05-02T08:23:31.646Z,4.18
2023-05-02T08:25:59.113Z,5.03
2023-05-02T08:28:26.708Z,3.88
2023-05-02T08:30:54.264Z,4.32
2023-05-02T08:33:21.858Z,5.13
2023-05-02T08:35:49.742Z,4.68
2023-05-02T08:38:17.327Z,4.13
2023-05-02T08:40:44.814Z,4.18
2023-05-02T08:43:14.592Z,4.70
2023-05-02T08:45:43.869Z,4.45
2023-05-02T08:48:12.741Z,4.40
2023-05-02T08:50:41.615Z,5.50
2023-05-02T08:53:09.949Z,4.20
2023-05-02T08:55:39.904Z,5.03
2023-05-02T08:58:08.630Z,4.88
2023-05-02T09:00:40.055Z,4.22
2023-05-02T09:03:14.480Z,4.70
2023-05-02T09:05:42.752Z,4.70
2023-05-02T09:08:10.684Z,5.07
2023-05-02T09:10:38.296Z,5.47
2023-05-02T09:13:24.550Z,5.35
2023-05-02T09:16:18.448Z,4.72
2023-05-02T09:18:46.969Z,4.93
2023-05-02T09:21:16.700Z,5.05
2023-05-02T09:23:53.077Z,4.63
2023-05-02T09:26:22.359Z,4.78
2023-05-02T09:28:51.547Z,4.97
2023-05-02T09:31:38.140Z,4.95
2023-05-02T09:34:15.029Z,4.68
2023-05-02T09:36:46.874Z,5.20
2023-05-02T09:39:17.547Z,5.35
2023-05-02T09:41:46.773Z,5.43
2023-05-02T09:44:15.365Z,5.07
2023-05-02T09:46:44.347Z,4.75
2023-05-02T09:49:12.210Z,5.65
2023-05-02T09:51:39.732Z,4.85
2023-05-02T09:54:07.254Z,5.55
2023-05-02T09:56:54.487Z,5.82
2023-05-02T09:59:25.112Z,5.30
2023-05-02T10:01:57.018Z,5.95
2023-05-02T10:04:25.013Z,4.75
2023-05-02T10:06:53.334Z,5.88
2023-05-02T10:09:21.828Z,4.78
2023-05-02T10:11:53.902Z,5.43
2023-05-02T10:14:22.652Z,5.45
2023-05-02T10:16:54.976Z,5.30
2023-05-02T10:19:25.385Z,5.55
2023-05-02T10:21:53.255Z,5.55
2023-05-02T10:24:22.572Z,5.63
2023-05-02T10:26:50.835Z,6.85
2023-05-02T10:29:18.484Z,5.20
2023-05-02T10:31:46.166Z,5.68
2023-05-02T10:34:14.072Z,5.60
2023-05-02T10:36:41.704Z,4.72
2023-05-02T10:39:09.412Z,4.28
2023-05-02T10:41:39.181Z,5.15
2023-05-02T10:44:08.763Z,5.70
2023-05-02T10:46:43.533Z,5.00
2023-05-02T10:49:12.402Z,5.47
2023-05-02T10:51:41.262Z,5.35
2023-05-02T10:54:18.590Z,5.25
2023-05-02T10:57:04.442Z,4.53
2023-05-02T10:59:47.609Z,4.38
2023-05-02T11:02:25.355Z,4.53
2023-05-02T11:05:00.637Z,4.43
2023-05-02T11:07:28.698Z,6.03
2023-05-02T11:10:15.124Z,4.82
2023-05-02T11:12:49.804Z,4.50
2023-05-02T11:15:23.576Z,4.22
2023-05-02T11:18:01.658Z,4.28
2023-05-02T11:20:29.862Z,4.72
2023-05-02T11:22:58.193Z,4.38
2023-05-02T11:25:32.857Z,4.43
2023-05-02T11:28:00.623Z,3.70
2023-05-02T11:30:58.061Z,3.28
2023-05-02T11:33:25.684Z,3.45
2023-05-02T11:35:53.239Z,2.80
2023-05-02T11:38:21.438Z,3.58
2023-05-02T11:40:52.757Z,3.42
2023-05-02T11:43:25.002Z,3.05
2023-05-02T11:45:53.160Z,2.70
2023-05-02T11:48:22.334Z,3.38
2023-05-02T11:50:53.453Z,3.00
2023-05-02T11:53:31.606Z,2.97
2023-05-02T11:56:00.380Z,2.58
2023-05-02T11:58:31.057Z,2.70
2023-05-02T12:00:58.978Z,2.50
2023-05-02T12:03:30.860Z,3.17
2023-05-02T12:05:59.328Z,2.90
2023-05-02T12:08:28.001Z,2.58
2023-05-02T12:10:56.481Z,2.30
2023-05-02T12:13:25.334Z,2.33
2023-05-02T12:15:53.506Z,2.67
2023-05-02T12:18:23.818Z,2.90
2023-05-02T12:20:55.439Z,2.80
2023-05-02T12:23:24.869Z,2.13
2023-05-02T12:25:52.513Z,3.30
2023-05-02T12:28:20.443Z,2.60
2023-05-02T12:30:49.395Z,2.58
2023-05-02T12:33:17.366Z,3.05
2023-05-02T12:35:48.897Z,2.40
2023-05-02T12:38:25.651Z,2.53
2023-05-02T12:40:54.006Z,2.55
2023-05-02T12:43:22.022Z,2.35
2023-05-02T12:45:50.701Z,2.15
2023-05-02T12:48:23.084Z,2.50
2023-05-02T12:50:53.376Z,2.28
2023-05-02T12:53:41.203Z,1.85
2023-05-02T12:56:09.018Z,2.83
2023-05-02T12:59:05.255Z,2.03
2023-05-02T13:01:36.250Z,2.33
2023-05-02T13:04:04.234Z,1.88
2023-05-02T13:06:32.159Z,2.53
2023-05-02T13:09:00.063Z,1.67
2023-05-02T13:11:28.108Z,1.83
2023-05-02T13:13:56.446Z,2.28
2023-05-02T13:16:24.054Z,2.10
2023-05-02T13:18:51.603Z,1.98
2023-05-02T13:21:19.334Z,2.10
2023-05-02T13:23:50.127Z,2.40
2023-05-02T13:26:17.816Z,1.90
2023-05-02T13:28:47.177Z,2.03
2023-05-02T13:31:14.799Z,1.60
2023-05-02T13:33:42.400Z,1.85
2023-05-02T13:36:09.889Z,2.45
2023-05-02T13:38:37.382Z,2.13
2023-05-02T13:41:05.255Z,1.80
2023-05-02T13:43:32.717Z,1.73
2023-05-02T13:46:00.682Z,1.55
2023-05-02T13:48:28.255Z,1.35
2023-05-02T13:50:55.919Z,2.58
2023-05-02T13:53:23.592Z,1.30
2023-05-02T13:55:51.246Z,1.30
2023-05-02T13:58:18.765Z,1.75
2023-05-02T14:00:47.329Z,1.30
2023-05-02T14:03:14.962Z,1.10
2023-05-02T14:05:43.666Z,1.30
2023-05-02T14:08:12.001Z,1.10
2023-05-02T14:10:39.917Z,1.10
2023-05-02T14:13:07.635Z,1.38
2023-05-02T14:15:35.302Z,0.93
2023-05-02T14:18:02.878Z,2.13
2023-05-02T14:20:30.517Z,1.48
2023-05-02T14:22:57.986Z,1.60
2023-05-02T14:25:25.604Z,1.33
2023-05-02T14:27:54.179Z,0.90
2023-05-02T14:30:21.789Z,1.27
2023-05-02T14:32:56.142Z,1.20
2023-05-02T14:35:24.004Z,1.55
2023-05-02T14:37:52.305Z,1.60
2023-05-02T14:43:08.344Z,1.40
2023-05-02T14:45:35.832Z,1.85
2023-05-02T14:48:03.710Z,1.42
2023-05-02T14:50:31.268Z,1.20
2023-05-02T14:52:58.821Z,1.45
2023-05-02T14:55:26.457Z,1.17
2023-05-02T14:57:56.013Z,1.60
2023-05-02T15:00:34.795Z,1.73
2023-05-02T15:03:03.351Z,1.60
2023-05-02T15:05:32.911Z,1.10
2023-05-02T15:08:01.377Z,1.27
2023-05-02T15:10:34.489Z,0.90
2023-05-02T15:13:03.820Z,1.40
2023-05-02T15:15:47.713Z,1.03
2023-05-02T15:18:15.321Z,1.20
2023-05-02T15:20:47.282Z,1.20
2023-05-02T15:23:14.860Z,1.40
2023-05-02T15:25:42.381Z,1.40
2023-05-02T15:28:10.055Z,1.30
2023-05-02T15:30:37.680Z,1.83
2023-05-02T15:33:09.945Z,2.58
2023-05-02T15:35:37.664Z,2.00
2023-05-02T15:38:05.517Z,2.60
2023-05-02T15:40:36.815Z,2.05
2023-05-02T15:43:04.436Z,1.85
2023-05-02T15:45:32.165Z,2.45
2023-05-02T15:47:59.867Z,2.03
2023-05-02T15:50:34.838Z,2.33
2023-05-02T15:53:11.308Z,2.22
2023-05-02T15:55:41.093Z,2.17
2023-05-02T15:58:09.238Z,1.77
2023-05-02T16:00:36.920Z,2.58
2023-05-02T16:03:06.702Z,2.35
2023-05-02T16:05:34.460Z,2.53
2023-05-02T16:08:02.098Z,2.50
2023-05-02T16:10:29.631Z,2.83
2023-05-02T16:12:59.510Z,2.80
2023-05-02T16:15:27.053Z,2.45
2023-05-02T16:17:54.601Z,2.83
2023-05-02T16:20:22.162Z,2.83
2023-05-02T16:25:41.750Z,3.28
2023-05-02T16:28:09.389Z,3.60
2023-05-02T16:30:38.748Z,3.50
2023-05-02T16:33:06.407Z,4.13
2023-05-02T16:35:33.996Z,4.32
2023-05-02T16:38:02.389Z,4.30
2023-05-02T16:40:32.639Z,4.55
2023-05-02T16:43:00.260Z,4.32
2023-05-02T16:45:30.001Z,4.57
2023-05-02T16:47:59.323Z,4.60
2023-05-02T16:50:29.596Z,4.72
2023-05-02T16:53:00.790Z,3.95
2023-05-02T16:55:33.142Z,4.07
2023-05-02T16:58:00.645Z,3.90
2023-05-02T17:00:30.606Z,4.05
2023-05-02T17:03:01.087Z,4.22
2023-05-02T17:05:31.477Z,3.95
2023-05-02T17:08:00.679Z,4.97
2023-05-02T17:10:32.007Z,4.45
2023-05-02T17:13:09.070Z,4.28
2023-05-02T17:15:38.580Z,4.38
2023-05-02T17:18:07.397Z,3.65
2023-05-02T17:23:33.103Z,3.00
2023-05-02T17:26:00.780Z,4.80
2023-05-02T17:28:28.304Z,4.43
2023-05-02T17:30:56.255Z,4.43
2023-05-02T17:36:07.483Z,4.15
2023-05-02T17:38:42.615Z,4.47
2023-05-02T17:44:39.715Z,3.67
2023-05-02T17:47:42.281Z,3.17
2023-05-02T17:53:12.581Z,2.72
2023-05-02T17:58:30.621Z,2.80
2023-05-02T18:01:00.942Z,2.38
2023-05-02T18:03:33.309Z,3.13
2023-05-02T18:06:01.179Z,2.17
2023-05-02T18:08:31.090Z,1.60
2023-05-02T18:10:59.080Z,1.87
2023-05-02T18:13:27.109Z,2.78
2023-05-02T18:16:01.545Z,2.70
2023-05-02T18:18:29.320Z,2.75
2023-05-02T18:20:56.969Z,2.55
2023-05-02T18:23:24.608Z,2.72
2023-05-02T18:25:52.149Z,3.10
2023-05-02T18:28:23.360Z,3.33
2023-05-02T18:30:52.120Z,2.13
2023-05-02T18:33:19.653Z,2.70
2023-05-02T18:35:48.076Z,2.55
2023-05-02T18:38:16.200Z,2.63
2023-05-02T18:40:43.868Z,2.88
2023-05-02T18:43:19.970Z,2.20
2023-05-02T18:45:50.033Z,2.60
2023-05-02T18:48:25.048Z,2.63
2023-05-02T18:53:54.385Z,2.50
2023-05-02T18:56:29.805Z,2.85
2023-05-02T18:58:57.363Z,2.92
2023-05-02T19:01:24.945Z,2.28
2023-05-02T19:03:56.301Z,2.45
2023-05-02T19:06:24.376Z,2.95
2023-05-02T19:08:54.353Z,2.80
2023-05-02T19:11:22.219Z,2.30
2023-05-02T19:13:49.840Z,2.88
2023-05-02T19:16:17.409Z,2.90
2023-05-02T19:18:44.978Z,2.33
2023-05-02T19:21:13.657Z,2.63
2023-05-02T19:23:41.779Z,3.25
2023-05-02T19:26:15.961Z,2.55
2023-05-02T19:28:46.427Z,2.40
2023-05-02T19:31:17.030Z,2.92
2023-05-02T19:33:50.984Z,3.17
2023-05-02T19:36:19.420Z,3.05
2023-05-02T19:38:53.937Z,2.40
2023-05-02T19:41:22.270Z,2.15
2023-05-02T19:43:50.519Z,2.03
2023-05-02T19:46:18.417Z,2.10
2023-05-02T19:48:48.385Z,2.00
2023-05-02T19:51:16.030Z,2.20
2023-05-02T19:53:43.651Z,2.17
2023-05-02T19:56:11.241Z,1.77
2023-05-02T19:58:38.851Z,2.50
2023-05-02T20:01:06.414Z,1.77
2023-05-02T20:03:38.530Z,1.88
2023-05-02T20:06:06.721Z,2.25
2023-05-02T20:08:34.422Z,2.47
2023-05-02T20:11:02.170Z,1.70
2023-05-02T20:13:29.799Z,2.08
2023-05-02T20:15:57.421Z,1.73
2023-05-02T20:18:24.954Z,1.77
2023-05-02T20:20:52.448Z,2.15
2023-05-02T20:23:20.924Z,2.67
2023-05-02T20:25:48.477Z,2.47
2023-05-02T20:28:16.000Z,2.65
2023-05-02T20:30:44.021Z,2.35
2023-05-02T20:33:16.029Z,2.13
2023-05-02T20:35:44.620Z,2.30
2023-05-02T20:38:12.573Z,2.58
2023-05-02T20:40:42.705Z,2.33
2023-05-02T20:43:11.765Z,2.00
2023-05-02T20:45:40.045Z,2.58
2023-05-02T20:48:11.809Z,2.42
2023-05-02T20:50:39.426Z,2.70
2023-05-02T20:53:06.924Z,2.55
2023-05-02T20:55:35.709Z,3.20
2023-05-02T20:58:03.280Z,3.22
2023-05-02T21:00:30.877Z,2.65
2023-05-02T21:02:58.418Z,2.53
2023-05-02T21:05:26.652Z,2.60
2023-05-02T21:07:54.151Z,2.85
2023-05-02T21:10:22.411Z,2.90
2023-05-02T21:12:49.892Z,3.35
2023-05-02T21:15:17.475Z,3.45
2023-05-02T21:17:45.096Z,3.10
2023-05-02T21:20:12.988Z,2.95
2023-05-02T21:22:42.035Z,3.10
2023-05-02T21:25:09.958Z,2.58
2023-05-02T21:27:37.711Z,2.70
2023-05-02T21:30:05.800Z,3.00
2023-05-02T21:32:35.562Z,2.60
2023-05-02T21:35:03.585Z,2.67
2023-05-02T21:37:31.990Z,3.25
2023-05-02T21:39:59.602Z,2.58
2023-05-02T21:42:27.093Z,3.15
2023-05-02T21:44:54.631Z,2.47
2023-05-02T21:47:22.377Z,3.25
2023-05-02T21:49:50.023Z,3.13
2023-05-02T21:52:17.577Z,3.53
2023-05-02T21:54:49.766Z,3.15
2023-05-02T21:57:17.268Z,3.47
2023-05-02T21:59:44.783Z,3.10
2023-05-02T22:02:12.311Z,2.55
2023-05-02T22:04:40.380Z,2.85
2023-05-02T22:07:07.999Z,2.88
2023-05-02T22:09:36.041Z,3.38
2023-05-02T22:12:03.987Z,2.85
2023-05-02T22:14:41.628Z,3.10
2023-05-02T22:17:12.430Z,2.55
2023-05-02T22:19:40.632Z,2.63
2023-05-02T22:22:08.310Z,2.35
2023-05-02T22:24:35.808Z,2.70
2023-05-02T22:27:07.111Z,2.55
2023-05-02T22:29:34.738Z,2.38
2023-05-02T22:32:02.315Z,2.42
2023-05-02T22:34:29.930Z,2.63
2023-05-02T22:36:57.445Z,3.00
2023-05-02T22:39:25.027Z,3.50
2023-05-02T22:41:52.533Z,3.40
2023-05-02T22:44:20.007Z,3.33
2023-05-02T22:46:47.531Z,3.55
2023-05-02T22:49:15.750Z,3.58
2023-05-02T22:51:43.394Z,3.67
2023-05-02T22:54:10.936Z,3.10
2023-05-02T22:56:38.414Z,3.42
2023-05-02T22:59:05.938Z,3.72
2023-05-02T23:01:33.545Z,3.20
2023-05-02T23:04:01.198Z,3.60
2023-05-02T23:06:28.967Z,3.00
2023-05-02T23:08:56.650Z,3.78
2023-05-02T23:11:24.129Z,3.40
2023-05-02T23:13:51.680Z,3.33
2023-05-02T23:16:19.235Z,3.53
2023-05-02T23:18:49.574Z,3.95
2023-05-02T23:21:17.459Z,4.03
2023-05-02T23:23:45.057Z,3.83
2023-05-02T23:26:12.630Z,3.40
2023-05-02T23:28:40.430Z,3.95
2023-05-02T23:31:08.226Z,3.30
2023-05-02T23:33:36.091Z,3.75
2023-05-02T23:36:03.813Z,2.80
2023-05-02T23:38:31.895Z,3.92
2023-05-02T23:40:59.508Z,3.08
2023-05-02T23:43:27.215Z,3.90
2023-05-02T23:45:54.765Z,3.20
2023-05-02T23:48:22.242Z,3.13
2023-05-02T23:50:49.770Z,2.95
2023-05-02T23:53:17.257Z,3.42
2023-05-02T23:55:44.801Z,3.03
2023-05-02T23:58:12.256Z,3.75
